Time;durP1;ratioP1;P1;durP2;ratioP2;P2;SDS_P1;SDS_P2;PMS_P1;PMS_P2;Temp;Humidity;BMP_temperature;BMP_pressure;BME280_temperature;BME280_humidity;BME280_pressure;Samples;Min_cycle;Max_cycle;Signal;HPM_P1;HPM_P2
2021/12/22 00:00:00;;;;;;;31.70;14.80;;;;;;;-141.50;100.00;63355.56;4954008;28;20055;-79
2021/12/22 00:02:29;;;;;;;32.95;14.95;;;;;;;-141.50;100.00;63355.56;4952492;28;20448;-80
2021/12/22 00:04:57;;;;;;;29.95;13.80;;;;;;;-141.50;100.00;63355.56;4954672;29;20075;-79
2021/12/22 00:07:23;;;;;;;32.72;14.15;;;;;;;-141.50;100.00;63355.56;4954025;28;20059;-79
2021/12/22 00:09:50;;;;;;;26.98;12.45;;;;;;;-141.50;100.00;63355.56;4952859;28;20078;-80
2021/12/22 00:12:16;;;;;;;27.08;12.40;;;;;;;-141.50;100.00;63355.56;4955696;28;20083;-80
2021/12/22 00:14:42;;;;;;;28.95;13.25;;;;;;;-141.50;100.00;63355.56;4955242;28;20078;-81
2021/12/22 00:17:09;;;;;;;23.88;11.60;;;;;;;-141.50;100.00;63355.56;4955614;29;20121;-82
2021/12/22 00:19:36;;;;;;;27.20;12.60;;;;;;;-141.50;100.00;63355.56;4954458;28;20051;-81
2021/12/22 00:22:02;;;;;;;29.63;13.30;;;;;;;-141.50;100.00;63355.56;4953141;28;20047;-80
2021/12/22 00:24:29;;;;;;;26.23;11.93;;;;;;;-141.50;100.00;63355.56;4954987;28;20075;-80
2021/12/22 00:26:57;;;;;;;25.60;11.38;;;;;;;-141.50;100.00;63355.56;4957885;28;20138;-82
2021/12/22 00:29:23;;;;;;;22.55;11.02;;;;;;;-141.50;100.00;63355.56;4969556;28;20094;-80
2021/12/22 00:32:09;;;;;;;22.13;10.88;;;;;;;-141.50;100.00;63355.56;4970643;28;20082;-79
2021/12/22 00:34:44;;;;;;;;;;;;;;;-141.50;100.00;63355.56;4957168;28;20047;-79
2021/12/22 00:37:11;;;;;;;28.00;11.13;;;;;;;-141.50;100.00;63355.56;4954707;28;19923;-82
2021/12/22 00:39:39;;;;;;;19.63;9.68;;;;;;;-141.50;100.00;63355.56;4953034;28;20051;-79
2021/12/22 00:42:06;;;;;;;21.58;9.02;;;;;;;-141.50;100.00;63355.56;4953144;29;20055;-80
2021/12/22 00:44:33;;;;;;;19.58;8.43;;;;;;;-141.50;100.00;63355.56;4953886;28;20062;-78
2021/12/22 00:46:59;;;;;;;17.73;8.80;;;;;;;-141.50;100.00;63355.56;4955572;28;20147;-81
2021/12/22 00:49:26;;;;;;;18.70;9.30;;;;;;;-141.50;100.00;63355.56;4954968;28;20055;-81
2021/12/22 00:51:52;;;;;;;23.95;11.07;;;;;;;-141.50;100.00;63355.56;4954291;28;20118;-81
2021/12/22 00:54:19;;;;;;;26.00;11.25;;;;;;;-141.50;100.00;63355.56;4953585;29;20114;-78
2021/12/22 00:56:45;;;;;;;26.15;11.75;;;;;;;-141.50;100.00;63355.56;4954836;28;20563;-81
2021/12/22 00:59:12;;;;;;;26.45;11.95;;;;;;;-141.50;100.00;63355.56;4952885;28;20078;-82
2021/12/22 01:01:39;;;;;;;30.52;12.68;;;;;;;-141.50;100.00;63355.56;4953790;28;20078;-80
2021/12/22 01:04:08;;;;;;;26.27;11.13;;;;;;;-141.50;100.00;63355.56;4953974;29;20098;-80
2021/12/22 01:06:36;;;;;;;16.15;7.57;;;;;;;-141.50;100.00;63355.56;4953799;28;20082;-81
2021/12/22 01:09:05;;;;;;;14.70;6.50;;;;;;;-141.50;100.00;63355.56;4953668;28;20118;-81
2021/12/22 01:11:31;;;;;;;20.17;8.95;;;;;;;-141.50;100.00;63355.56;4952648;28;20090;-80
2021/12/22 01:13:58;;;;;;;27.48;9.68;;;;;;;-141.50;100.00;63355.56;4954523;28;20055;-80
2021/12/22 01:16:25;;;;;;;27.02;11.70;;;;;;;-141.50;100.00;63355.56;4953196;29;20051;-81
2021/12/22 01:18:52;;;;;;;22.27;10.30;;;;;;;-141.50;100.00;63355.56;4951172;29;20150;-79
2021/12/22 01:21:26;;;;;;;30.52;13.85;;;;;;;-141.50;100.00;63355.56;4952571;28;20503;-80
2021/12/22 01:24:02;;;;;;;34.03;14.27;;;;;;;-141.50;100.00;63355.56;4953618;29;20079;-80
2021/12/22 01:26:34;;;;;;;34.90;15.70;;;;;;;-141.50;100.00;63355.56;4953180;29;20626;-80
2021/12/22 01:29:01;;;;;;;38.17;17.38;;;;;;;-141.50;100.00;63355.56;4953922;28;20085;-81
2021/12/22 01:31:27;;;;;;;36.72;16.75;;;;;;;-141.50;100.00;63355.56;4959567;28;20051;-81
2021/12/22 01:33:54;;;;;;;35.75;17.65;;;;;;;-141.50;100.00;63355.56;4954108;28;20146;-82
2021/12/22 01:36:20;;;;;;;37.25;16.08;;;;;;;-141.50;100.00;63355.56;4954870;28;20051;-81
2021/12/22 01:38:48;;;;;;;36.67;17.05;;;;;;;-141.50;100.00;63355.56;4953891;28;20507;-82
2021/12/22 01:41:15;;;;;;;37.72;16.08;;;;;;;-141.50;100.00;63355.56;4953569;28;20051;-81
2021/12/22 01:43:41;;;;;;;39.67;17.80;;;;;;;-141.50;100.00;63355.56;4955594;28;20047;-82
2021/12/22 01:46:31;;;;;;;38.95;17.92;;;;;;;-141.50;100.00;63355.56;4970942;28;20147;-80
2021/12/22 01:49:14;;;;;;;41.72;19.08;;;;;;;-141.50;100.00;63355.56;4977069;28;20266;-79
2021/12/22 01:51:40;;;;;;;;;;;;;;;-141.50;100.00;63355.56;4972407;28;20389;-80
2021/12/22 01:54:29;;;;;;;49.50;18.92;;;;;;;-141.50;100.00;63355.56;4954925;28;19957;-80
2021/12/22 01:57:02;;;;;;;37.83;17.83;;;;;;;-141.50;100.00;63355.56;4955646;28;20087;-80
2021/12/22 01:59:31;;;;;;;43.78;19.45;;;;;;;-141.50;100.00;63355.56;4954289;28;20102;-80
2021/12/22 02:01:59;;;;;;;40.85;19.55;;;;;;;-141.50;100.00;63355.56;4953984;28;20047;-82
2021/12/22 02:04:26;;;;;;;45.33;20.27;;;;;;;-141.50;100.00;63355.56;4951806;28;20106;-80
2021/12/22 02:06:53;;;;;;;45.45;21.40;;;;;;;-141.50;100.00;63355.56;4952412;28;20461;-82
2021/12/22 02:09:39;;;;;;;49.72;20.45;;;;;;;-141.50;100.00;63355.56;4952868;28;20117;-78
2021/12/22 02:12:08;;;;;;;43.67;20.85;;;;;;;-141.50;100.00;63355.56;4953914;28;20079;-81
2021/12/22 02:14:34;;;;;;;43.50;20.38;;;;;;;-141.50;100.00;63355.56;4954681;28;20451;-81
2021/12/22 02:17:06;;;;;;;48.00;21.42;;;;;;;-141.50;100.00;63355.56;4952521;28;20056;-81
2021/12/22 02:19:37;;;;;;;45.42;20.88;;;;;;;-141.50;100.00;63355.56;4952225;28;20086;-81
2021/12/22 02:22:09;;;;;;;47.05;21.20;;;;;;;-141.50;100.00;63355.56;4955736;28;20055;-81
2021/12/22 02:24:36;;;;;;;45.85;21.33;;;;;;;-141.50;100.00;63355.56;4956060;28;20081;-81
2021/12/22 02:27:09;;;;;;;47.13;21.60;;;;;;;-141.50;100.00;63355.56;4956646;28;20078;-82
2021/12/22 02:29:38;;;;;;;46.83;21.52;;;;;;;-141.50;100.00;63355.56;4955517;28;20530;-81
2021/12/22 02:32:31;;;;;;;45.92;22.08;;;;;;;-141.50;100.00;63355.56;4955583;28;20093;-81
2021/12/22 02:35:02;;;;;;;54.05;23.40;;;;;;;-141.50;100.00;63355.56;4956099;28;20560;-82
2021/12/22 02:37:30;;;;;;;51.58;22.05;;;;;;;-141.50;100.00;63355.56;4955925;28;20086;-81
2021/12/22 02:40:00;;;;;;;49.70;23.27;;;;;;;-141.50;100.00;63355.56;4955469;28;20110;-80
2021/12/22 02:42:32;;;;;;;50.00;23.02;;;;;;;-141.50;100.00;63355.56;4956936;28;20385;-82
2021/12/22 02:45:09;;;;;;;51.47;24.20;;;;;;;-141.50;100.00;63355.56;4956563;28;20047;-82
2021/12/22 02:47:36;;;;;;;53.22;24.33;;;;;;;-141.50;100.00;63355.56;4955926;29;20121;-81
2021/12/22 02:50:07;;;;;;;56.85;23.83;;;;;;;-141.50;100.00;63355.56;4957396;28;20073;-81
2021/12/22 02:55:27;;;;;;;53.85;24.95;;;;;;;-141.50;100.00;63355.56;4971800;28;20058;-80
2021/12/22 02:57:57;;;;;;;54.13;24.45;;;;;;;-141.50;100.00;63355.56;4957164;28;20082;-81
2021/12/22 03:01:12;;;;;;;56.65;24.13;;;;;;;-141.50;100.00;63355.56;4955144;29;20079;-81
2021/12/22 03:05:52;;;;;;;56.42;25.10;;;;;;;-141.50;100.00;63355.56;4957585;28;20055;-81
2021/12/22 03:08:19;;;;;;;60.58;24.42;;;;;;;-141.50;100.00;63355.56;4956239;29;20055;-80
2021/12/22 03:10:45;;;;;;;59.67;24.08;;;;;;;-141.50;100.00;63355.56;4955097;28;20083;-81
2021/12/22 03:13:12;;;;;;;55.97;24.42;;;;;;;-141.50;100.00;63355.56;4959876;28;20423;-80
2021/12/22 03:15:38;;;;;;;54.22;24.60;;;;;;;-141.50;100.00;63355.56;4961087;28;20072;-79
2021/12/22 03:18:06;;;;;;;63.90;25.80;;;;;;;-141.50;100.00;63355.56;4961505;28;20059;-80
2021/12/22 03:20:33;;;;;;;61.67;26.00;;;;;;;-141.50;100.00;63355.56;4958035;28;20078;-80
2021/12/22 03:23:00;;;;;;;62.53;25.98;;;;;;;-141.50;100.00;63355.56;4955972;28;20133;-80
2021/12/22 03:25:27;;;;;;;61.22;25.95;;;;;;;-141.50;100.00;63355.56;4954810;28;20047;-81
2021/12/22 03:27:57;;;;;;;59.10;25.48;;;;;;;-141.50;100.00;63355.56;4957098;28;20066;-81
2021/12/22 03:30:26;;;;;;;64.45;27.05;;;;;;;-141.50;100.00;63355.56;4955402;28;20290;-81
2021/12/22 03:32:53;;;;;;;61.67;26.67;;;;;;;-141.50;100.00;63355.56;4956218;28;20090;-81
2021/12/22 03:35:21;;;;;;;68.00;27.83;;;;;;;-141.50;100.00;63355.56;4956571;28;20134;-79
2021/12/22 03:42:45;;;;;;;74.53;28.20;;;;;;;-141.50;100.00;63355.56;4877988;29;20053;-77
2021/12/22 03:45:12;;;;;;;69.50;27.35;;;;;;;-141.50;100.00;63355.56;4879759;29;20113;-78
2021/12/22 03:47:39;;;;;;;69.90;29.00;;;;;;;-141.50;100.00;63355.56;4885402;29;20109;-78
2021/12/22 03:50:09;;;;;;;69.53;28.33;;;;;;;-141.50;100.00;63355.56;4901704;29;20104;-78
2021/12/22 03:52:36;;;;;;;70.95;28.58;;;;;;;-141.50;100.00;63355.56;4896341;29;20499;-80
2021/12/22 03:55:04;;;;;;;69.22;27.77;;;;;;;-141.50;100.00;63355.56;4896919;29;20045;-78
2021/12/22 03:57:30;;;;;;;63.13;27.75;;;;;;;-141.50;100.00;63355.56;4896813;29;20100;-78
2021/12/22 03:59:59;;;;;;;77.38;28.70;;;;;;;-141.50;100.00;63355.56;4896512;29;20052;-79
2021/12/22 04:02:28;;;;;;;72.82;28.52;;;;;;;-141.50;100.00;63355.56;4896936;29;20104;-78
2021/12/22 04:04:54;;;;;;;65.18;27.30;;;;;;;-141.50;100.00;63355.56;4897315;29;20049;-79
2021/12/22 04:07:21;;;;;;;65.38;27.23;;;;;;;-141.50;100.00;63355.56;4897127;29;20085;-79
2021/12/22 04:09:47;;;;;;;65.22;27.05;;;;;;;-141.50;100.00;63355.56;4893810;29;20468;-77
2021/12/22 04:12:14;;;;;;;65.05;26.92;;;;;;;-141.50;100.00;63355.56;4897504;29;20445;-78
2021/12/22 04:14:41;;;;;;;63.70;25.83;;;;;;;-141.50;100.00;63355.56;4896841;29;20477;-78
2021/12/22 04:17:07;;;;;;;60.85;25.25;;;;;;;-141.50;100.00;63355.56;4896780;29;20086;-78
2021/12/22 04:19:34;;;;;;;59.67;24.40;;;;;;;-141.50;100.00;63355.56;4886297;29;20052;-78
2021/12/22 04:22:01;;;;;;;60.08;24.35;;;;;;;-141.50;100.00;63355.56;4876673;29;20485;-77
2021/12/22 04:24:28;;;;;;;61.42;23.08;;;;;;;-141.50;100.00;63355.56;4876918;29;20092;-78
2021/12/22 04:26:54;;;;;;;56.63;24.50;;;;;;;-141.50;100.00;63355.56;4876932;29;20474;-78
2021/12/22 04:29:21;;;;;;;57.80;25.00;;;;;;;-141.50;100.00;63355.56;4878082;29;20053;-78
2021/12/22 04:31:48;;;;;;;63.95;24.17;;;;;;;-141.50;100.00;63355.56;4860983;29;20152;-78
2021/12/22 04:34:14;;;;;;;56.42;24.75;;;;;;;-141.50;100.00;63355.56;4878078;29;20053;-78
2021/12/22 04:36:45;;;;;;;56.13;22.92;;;;;;;-141.50;100.00;63355.56;4878201;29;20141;-78
2021/12/22 04:39:12;;;;;;;59.75;24.58;;;;;;;-141.50;100.00;63355.56;4878819;29;20513;-78
2021/12/22 04:41:39;;;;;;;65.63;26.35;;;;;;;-141.50;100.00;63355.56;4882881;29;20462;-78
2021/12/22 04:44:05;;;;;;;62.53;25.13;;;;;;;-141.50;100.00;63355.56;4885547;29;20105;-78
2021/12/22 04:46:33;;;;;;;71.70;26.73;;;;;;;-141.50;100.00;63355.56;4869582;29;20500;-77
2021/12/22 04:49:00;;;;;;;63.03;25.85;;;;;;;-141.50;100.00;63355.56;4895306;29;20083;-77
2021/12/22 04:51:30;;;;;;;62.40;25.17;;;;;;;-141.50;100.00;63355.56;4895522;29;20445;-79
2021/12/22 04:56:25;;;;;;;66.35;25.27;;;;;;;-141.50;100.00;63355.56;4894999;29;20249;-79
2021/12/22 04:58:51;;;;;;;59.72;24.55;;;;;;;-141.50;100.00;63355.56;4893016;29;20044;-79
2021/12/22 05:01:18;;;;;;;61.90;24.92;;;;;;;-141.50;100.00;63355.56;4880847;29;20099;-79
2021/12/22 05:03:44;;;;;;;65.00;25.77;;;;;;;-141.50;100.00;63355.56;4896419;29;20157;-79
2021/12/22 05:06:11;;;;;;;63.50;25.88;;;;;;;-141.50;100.00;63355.56;4895686;29;20489;-78
2021/12/22 05:08:37;;;;;;;61.97;25.48;;;;;;;-141.50;100.00;63355.56;4878461;29;20087;-78
2021/12/22 05:11:04;;;;;;;68.68;26.35;;;;;;;-141.50;100.00;63355.56;4878631;29;20080;-79
2021/12/22 05:13:33;;;;;;;70.57;26.25;;;;;;;-141.50;100.00;63355.56;4878489;29;20116;-79
2021/12/22 05:16:00;;;;;;;65.90;25.48;;;;;;;-141.50;100.00;63355.56;4896441;29;20292;-77
2021/12/22 05:18:48;;;;;;;61.35;24.75;;;;;;;-141.50;100.00;63355.56;4895846;29;20088;-78
2021/12/22 05:21:13;;;;;;;57.22;24.38;;;;;;;-141.50;100.00;63355.56;4894706;29;20115;-81
2021/12/22 05:23:39;;;;;;;59.20;24.80;;;;;;;-141.50;100.00;63355.56;4880513;29;20576;-79
2021/12/22 05:26:06;;;;;;;59.70;24.23;;;;;;;-141.50;100.00;63355.56;4896882;29;20520;-78
2021/12/22 05:28:32;;;;;;;60.10;24.48;;;;;;;-141.50;100.00;63355.56;4896734;29;20052;-79
2021/12/22 05:30:59;;;;;;;61.28;24.45;;;;;;;-141.50;100.00;63355.56;4897758;29;20484;-79
2021/12/22 05:33:25;;;;;;;58.25;25.13;;;;;;;-141.50;100.00;63355.56;4896519;29;20152;-79
2021/12/22 05:35:52;;;;;;;60.85;25.05;;;;;;;-141.50;100.00;63355.56;4900600;29;20401;-79
2021/12/22 05:38:18;;;;;;;62.08;25.17;;;;;;;-141.50;100.00;63355.56;4898947;29;20532;-78
2021/12/22 05:40:45;;;;;;;62.70;25.02;;;;;;;-141.50;100.00;63355.56;4896747;29;20413;-80
2021/12/22 05:43:11;;;;;;;63.75;25.73;;;;;;;-141.50;100.00;63355.56;4881553;29;20524;-79
2021/12/22 05:45:38;;;;;;;61.50;25.40;;;;;;;-141.50;100.00;63355.56;4900288;29;20060;-79
2021/12/22 05:48:05;;;;;;;56.72;24.02;;;;;;;-141.50;100.00;63355.56;4900123;29;20108;-78
2021/12/22 05:50:32;;;;;;;59.15;22.95;;;;;;;-141.50;100.00;63355.56;4898025;29;20187;-79
2021/12/22 05:52:58;;;;;;;58.58;23.73;;;;;;;-141.50;100.00;63355.56;4881577;29;20079;-79
2021/12/22 05:55:25;;;;;;;61.92;23.05;;;;;;;-141.50;100.00;63355.56;4899138;29;20206;-80
2021/12/22 05:57:51;;;;;;;68.55;24.83;;;;;;;-141.50;100.00;63355.56;4902263;29;20156;-79
2021/12/22 06:00:18;;;;;;;59.13;24.65;;;;;;;-141.50;100.00;63355.56;4880190;29;20132;-77
2021/12/22 06:02:44;;;;;;;56.45;23.33;;;;;;;-141.50;100.00;63355.56;4900654;29;20119;-79
2021/12/22 06:05:11;;;;;;;64.88;22.90;;;;;;;-141.50;100.00;63355.56;4900548;29;20143;-79
2021/12/22 06:07:37;;;;;;;62.67;23.95;;;;;;;-141.50;100.00;63355.56;4912775;29;20266;-79
2021/12/22 06:10:05;;;;;;;60.45;24.65;;;;;;;-141.50;100.00;63355.56;4893021;29;20570;-79
2021/12/22 06:12:32;;;;;;;58.40;24.80;;;;;;;-141.50;100.00;63355.56;4880277;29;20108;-79
2021/12/22 06:14:59;;;;;;;57.45;24.33;;;;;;;-141.50;100.00;63355.56;4880713;29;20049;-79
2021/12/22 06:17:25;;;;;;;60.53;23.80;;;;;;;-141.50;100.00;63355.56;4881780;29;20116;-78
2021/12/22 06:19:53;;;;;;;58.97;24.05;;;;;;;-141.50;100.00;63355.56;4876389;29;20049;-78
2021/12/22 06:22:20;;;;;;;62.80;23.92;;;;;;;-141.50;100.00;63355.56;4879843;29;20057;-79
2021/12/22 06:24:46;;;;;;;55.65;22.85;;;;;;;-141.50;100.00;63355.56;4883070;29;20045;-79
2021/12/22 06:27:13;;;;;;;54.60;21.73;;;;;;;-141.50;100.00;63355.56;4873274;29;20049;-79
2021/12/22 06:29:39;;;;;;;57.08;22.92;;;;;;;-141.50;100.00;63355.56;4888001;29;20211;-78
2021/12/22 06:32:07;;;;;;;52.38;21.70;;;;;;;-141.50;100.00;63355.56;4895247;29;20056;-79
2021/12/22 06:34:34;;;;;;;52.00;21.48;;;;;;;-141.50;100.00;63355.56;4882688;29;20116;-77
2021/12/22 06:37:00;;;;;;;53.72;22.10;;;;;;;-141.50;100.00;63355.56;4895848;29;20083;-79
2021/12/22 06:39:27;;;;;;;60.90;23.05;;;;;;;-141.50;100.00;63355.56;4894845;29;20493;-79
2021/12/22 06:41:54;;;;;;;53.40;20.60;;;;;;;-141.50;100.00;63355.56;4896325;29;20610;-78
2021/12/22 06:44:23;;;;;;;54.47;22.95;;;;;;;-141.50;100.00;63355.56;4896814;29;20048;-78
2021/12/22 06:46:50;;;;;;;53.40;22.73;;;;;;;-141.50;100.00;63355.56;4896079;29;20063;-78
2021/12/22 06:49:17;;;;;;;53.03;21.63;;;;;;;-141.50;100.00;63355.56;4881369;29;20056;-79
2021/12/22 06:51:43;;;;;;;52.80;22.10;;;;;;;-141.50;100.00;63355.56;4911526;29;20131;-78
2021/12/22 06:54:10;;;;;;;59.22;22.10;;;;;;;-141.50;100.00;63355.56;4899604;29;20095;-78
2021/12/22 06:56:39;;;;;;;61.28;22.08;;;;;;;-141.50;100.00;63355.56;4879437;29;20556;-80
2021/12/22 06:59:06;;;;;;;57.88;22.63;;;;;;;-141.50;100.00;63355.56;4894849;29;20207;-80
2021/12/22 07:01:34;;;;;;;54.03;22.10;;;;;;;-141.50;100.00;63355.56;4893742;29;20064;-75
2021/12/22 07:04:03;;;;;;;56.00;22.13;;;;;;;-141.50;100.00;63355.56;4895634;29;20458;-79
2021/12/22 07:06:30;;;;;;;52.58;21.20;;;;;;;-141.50;100.00;63355.56;4884368;29;20048;-79
2021/12/22 07:08:59;;;;;;;56.72;21.98;;;;;;;-141.50;100.00;63355.56;4907974;29;20048;-79
2021/12/22 07:11:26;;;;;;;51.85;21.17;;;;;;;-141.50;100.00;63355.56;4886497;29;20052;-79
2021/12/22 07:13:53;;;;;;;53.08;21.83;;;;;;;-141.50;100.00;63355.56;4918015;29;20099;-80
2021/12/22 07:16:20;;;;;;;57.40;22.75;;;;;;;-141.50;100.00;63355.56;4917470;29;20052;-80
2021/12/22 07:18:51;;;;;;;53.97;22.08;;;;;;;-141.50;100.00;63355.56;4899942;29;20167;-79
2021/12/22 07:21:17;;;;;;;56.72;22.02;;;;;;;-141.50;100.00;63355.56;4915926;29;20052;-79
2021/12/22 07:23:44;;;;;;;61.55;23.95;;;;;;;-141.50;100.00;63355.56;4899618;29;20087;-78
2021/12/22 07:26:13;;;;;;;55.33;22.95;;;;;;;-141.50;100.00;63355.56;4915673;29;20154;-77
2021/12/22 07:28:42;;;;;;;58.67;22.98;;;;;;;-141.50;100.00;63355.56;4933651;29;20040;-78
2021/12/22 07:31:09;;;;;;;54.67;22.05;;;;;;;-141.50;100.00;63355.56;4919204;29;20036;-78
2021/12/22 07:33:36;;;;;;;50.83;22.00;;;;;;;-141.50;100.00;63355.56;4921524;29;20052;-80
2021/12/22 07:36:05;;;;;;;50.15;21.90;;;;;;;-141.50;100.00;63355.56;4910339;29;20144;-78
2021/12/22 07:38:59;;;;;;;50.67;21.45;;;;;;;-141.50;100.00;63355.56;4916831;29;20189;-78
2021/12/22 07:41:27;;;;;;;54.95;21.95;;;;;;;-141.50;100.00;63355.56;4914503;29;20055;-79
2021/12/22 07:43:54;;;;;;;50.63;22.25;;;;;;;-141.50;100.00;63355.56;4902414;29;20083;-79
2021/12/22 07:46:20;;;;;;;54.17;23.05;;;;;;;-141.50;100.00;63355.56;4912533;29;20072;-79
2021/12/22 07:48:47;;;;;;;49.28;21.90;;;;;;;-141.50;100.00;63355.56;4906100;29;20083;-79
2021/12/22 07:51:14;;;;;;;54.70;22.85;;;;;;;-141.50;100.00;63355.56;4905193;29;20132;-80
2021/12/22 07:53:41;;;;;;;47.10;21.25;;;;;;;-141.50;100.00;63355.56;4901258;29;20065;-79
2021/12/22 07:56:07;;;;;;;46.88;20.30;;;;;;;-141.50;100.00;63355.56;4903856;29;20048;-79
2021/12/22 07:58:34;;;;;;;50.20;21.60;;;;;;;-141.50;100.00;63355.56;4897771;29;20136;-79
2021/12/22 08:01:00;;;;;;;48.60;21.45;;;;;;;-141.50;100.00;63355.56;4870527;29;20045;-79
2021/12/22 08:03:27;;;;;;;54.97;21.48;;;;;;;-141.50;100.00;63355.56;4884385;29;20143;-79
2021/12/22 08:06:11;;;;;;;52.03;22.45;;;;;;;-141.50;100.00;63355.56;4884760;29;20053;-78
2021/12/22 08:08:38;;;;;;;47.80;21.30;;;;;;;-141.50;100.00;63355.56;4884640;29;20072;-79
2021/12/22 08:11:05;;;;;;;46.72;21.30;;;;;;;-141.50;100.00;63355.56;4887746;29;20053;-79
2021/12/22 08:13:32;;;;;;;49.10;21.65;;;;;;;-141.50;100.00;63355.56;4906529;29;20060;-79
2021/12/22 08:15:58;;;;;;;45.90;19.73;;;;;;;-141.50;100.00;63355.56;4903127;29;20057;-78
2021/12/22 08:18:25;;;;;;;44.40;19.38;;;;;;;-141.50;100.00;63355.56;4878407;29;20103;-78
2021/12/22 08:20:52;;;;;;;44.22;20.55;;;;;;;-141.50;100.00;63355.56;4878551;29;20057;-79
2021/12/22 08:23:19;;;;;;;40.67;19.90;;;;;;;-141.50;100.00;63355.56;4905252;29;20056;-79
2021/12/22 08:25:47;;;;;;;41.80;18.65;;;;;;;-141.50;100.00;63355.56;4931481;29;20115;-79
2021/12/22 08:28:14;;;;;;;39.15;18.17;;;;;;;-141.50;100.00;63355.56;4930542;29;20246;-79
2021/12/22 08:30:41;;;;;;;33.58;16.70;;;;;;;-141.50;100.00;63355.56;4888473;29;20064;-79
2021/12/22 08:33:20;;;;;;;36.30;16.98;;;;;;;-141.50;100.00;63355.56;4919814;29;20107;-79
2021/12/22 08:38:50;;;;;;;33.35;15.93;;;;;;;-141.50;100.00;63355.56;4919277;29;20123;-79
2021/12/22 08:41:25;;;;;;;38.40;15.95;;;;;;;-141.50;100.00;63355.56;4919978;29;20112;-79
2021/12/22 08:43:53;;;;;;;35.78;17.48;;;;;;;-141.50;100.00;63355.56;4921360;29;20107;-80
2021/12/22 08:46:21;;;;;;;47.15;19.40;;;;;;;-141.50;100.00;63355.56;4921108;29;20102;-79
2021/12/22 08:48:47;;;;;;;39.40;19.88;;;;;;;-141.50;100.00;63355.56;4901688;29;20227;-79
2021/12/22 08:51:14;;;;;;;43.08;20.98;;;;;;;-141.50;100.00;63355.56;4919923;29;20151;-79
2021/12/22 08:53:41;;;;;;;53.17;21.80;;;;;;;-141.50;100.00;63355.56;4910994;29;20309;-78
2021/12/22 08:56:08;;;;;;;61.40;26.20;;;;;;;-141.50;100.00;63355.56;4900540;29;20104;-79
2021/12/22 08:58:35;;;;;;;39.63;18.15;;;;;;;-141.50;100.00;63355.56;4886249;29;20060;-80
2021/12/22 09:01:03;;;;;;;32.92;16.25;;;;;;;-141.50;100.00;63355.56;4904433;29;20091;-80
2021/12/22 09:03:30;;;;;;;23.70;12.38;;;;;;;-141.50;100.00;63355.56;4904023;29;20057;-80
2021/12/22 09:05:56;;;;;;;23.02;12.45;;;;;;;-141.50;100.00;63355.56;4904229;29;20045;-79
2021/12/22 09:08:23;;;;;;;21.10;12.48;;;;;;;-141.50;100.00;63355.56;4902273;29;20079;-79
2021/12/22 09:10:50;;;;;;;22.27;12.30;;;;;;;-141.50;100.00;63355.56;4884880;29;20509;-79
2021/12/22 09:13:19;;;;;;;21.63;11.60;;;;;;;-141.50;100.00;63355.56;4898722;29;20053;-79
2021/12/22 09:15:46;;;;;;;18.98;10.43;;;;;;;-141.50;100.00;63355.56;4897962;29;20049;-79
2021/12/22 09:18:12;;;;;;;22.58;10.98;;;;;;;-141.50;100.00;63355.56;4897081;29;20056;-78
2021/12/22 09:20:39;;;;;;;19.77;10.57;;;;;;;-141.50;100.00;63355.56;4895996;29;20418;-79
2021/12/22 09:23:06;;;;;;;18.42;10.63;;;;;;;-141.50;100.00;63355.56;4897191;29;20057;-78
2021/12/22 09:25:33;;;;;;;20.65;10.95;;;;;;;-141.50;100.00;63355.56;4892288;29;20469;-78
2021/12/22 09:28:01;;;;;;;18.58;10.52;;;;;;;-141.50;100.00;63355.56;4912890;29;20123;-78
2021/12/22 09:30:31;;;;;;;20.35;10.68;;;;;;;-141.50;100.00;63355.56;4913551;29;20076;-78
2021/12/22 09:32:58;;;;;;;17.90;10.60;;;;;;;-141.50;100.00;63355.56;4914606;29;20115;-78
2021/12/22 09:35:27;;;;;;;18.65;10.95;;;;;;;-141.50;100.00;63355.56;4914566;29;20052;-79
2021/12/22 09:37:54;;;;;;;21.15;11.32;;;;;;;-141.50;100.00;63355.56;4917365;29;20052;-79
2021/12/22 09:40:20;;;;;;;17.35;9.95;;;;;;;-141.50;100.00;63355.56;4917083;29;20056;-77
2021/12/22 09:42:47;;;;;;;17.60;10.90;;;;;;;-141.50;100.00;63355.56;4903295;29;20058;-79
2021/12/22 09:45:15;;;;;;;19.98;9.85;;;;;;;-141.50;100.00;63355.56;4916907;29;20197;-79
2021/12/22 09:48:00;;;;;;;15.98;9.95;;;;;;;-141.50;100.00;63355.56;4900347;29;20411;-80
2021/12/22 09:53:09;;;;;;;18.33;9.82;;;;;;;-141.50;100.00;63355.56;4912136;29;20635;-79
2021/12/22 09:55:35;;;;;;;20.42;10.48;;;;;;;-141.50;100.00;63355.56;4895114;29;20131;-79
2021/12/22 09:58:03;;;;;;;18.60;10.55;;;;;;;-141.50;100.00;63355.56;4911801;29;20386;-78
2021/12/22 10:00:33;;;;;;;19.73;10.70;;;;;;;-141.50;100.00;63355.56;4911549;29;20056;-79
2021/12/22 10:03:00;;;;;;;25.52;12.13;;;;;;;-141.50;100.00;63355.56;4911099;29;20488;-79
2021/12/22 10:05:27;;;;;;;25.67;16.73;;;;;;;-141.50;100.00;63355.56;4894840;29;20143;-78
2021/12/22 10:08:04;;;;;;;15.20;8.68;;;;;;;-141.50;100.00;63355.56;4912310;29;20086;-78
2021/12/22 10:10:31;;;;;;;14.77;7.65;;;;;;;-141.50;100.00;63355.56;4909714;29;20504;-78
2021/12/22 10:13:09;;;;;;;14.15;6.68;;;;;;;-141.50;100.00;63355.56;4910584;29;20052;-77
2021/12/22 10:15:37;;;;;;;13.88;7.38;;;;;;;-141.50;100.00;63355.56;4894676;29;20076;-77
2021/12/22 10:18:13;;;;;;;15.68;7.32;;;;;;;-141.50;100.00;63355.56;4911754;29;20056;-78
2021/12/22 10:20:42;;;;;;;14.15;7.38;;;;;;;-141.50;100.00;63355.56;4909887;29;20060;-79
2021/12/22 10:23:27;;;;;;;14.02;7.28;;;;;;;-141.50;100.00;63355.56;4911119;29;20555;-77
2021/12/22 10:25:55;;;;;;;14.93;7.80;;;;;;;-141.50;100.00;63355.56;4893971;29;20080;-79
2021/12/22 10:28:23;;;;;;;12.65;7.50;;;;;;;-141.50;100.00;63355.56;4911436;29;20099;-77
2021/12/22 10:30:55;;;;;;;15.82;7.45;;;;;;;-141.50;100.00;63355.56;4898039;29;20052;-77
2021/12/22 10:33:25;;;;;;;16.55;7.60;;;;;;;-141.50;100.00;63355.56;4913629;29;20107;-78
2021/12/22 10:35:59;;;;;;;16.13;6.93;;;;;;;-141.50;100.00;63355.56;4912061;29;20049;-78
2021/12/22 10:38:28;;;;;;;19.00;7.30;;;;;;;-141.50;100.00;63355.56;4912489;29;20063;-78
2021/12/22 10:41:00;;;;;;;12.98;6.78;;;;;;;-141.50;100.00;63355.56;4911621;29;20055;-79
2021/12/22 10:43:29;;;;;;;14.35;7.40;;;;;;;-141.50;100.00;63355.56;4916694;29;20048;-79
2021/12/22 10:46:00;;;;;;;13.25;7.20;;;;;;;-141.50;100.00;63355.56;4919668;29;20496;-79
2021/12/22 10:51:31;;;;;;;12.30;6.75;;;;;;;-141.50;100.00;63355.56;4931617;29;20055;-78
2021/12/22 10:53:59;;;;;;;14.27;6.30;;;;;;;-141.50;100.00;63355.56;4918838;29;20127;-79
2021/12/22 10:56:27;;;;;;;12.98;6.85;;;;;;;-141.50;100.00;63355.56;4895087;29;20143;-78
2021/12/22 10:59:09;;;;;;;17.13;6.70;;;;;;;-141.50;100.00;63355.56;4896941;29;20052;-78
2021/12/22 11:01:40;;;;;;;13.20;6.78;;;;;;;-141.50;100.00;63355.56;4880362;29;20735;-79
2021/12/22 11:04:21;;;;;;;12.05;6.30;;;;;;;-141.50;100.00;63355.56;4889629;29;20112;-80
2021/12/22 11:06:53;;;;;;;15.63;6.32;;;;;;;-141.50;100.00;63355.56;4898325;29;20056;-77
2021/12/22 11:09:22;;;;;;;16.35;6.40;;;;;;;-141.50;100.00;63355.56;4878691;29;20068;-77
2021/12/22 11:11:59;;;;;;;15.68;7.50;;;;;;;-141.50;100.00;63355.56;4899962;29;20056;-79
2021/12/22 11:14:38;;;;;;;15.63;6.97;;;;;;;-141.50;100.00;63355.56;4900007;29;20052;-80
2021/12/22 11:17:09;;;;;;;14.23;6.90;;;;;;;-141.50;100.00;63355.56;4900320;29;20072;-79
2021/12/22 11:19:37;;;;;;;14.90;7.28;;;;;;;-141.50;100.00;63355.56;4890210;29;20063;-79
2021/12/22 11:22:13;;;;;;;12.75;6.93;;;;;;;-141.50;100.00;63355.56;4901863;29;20053;-79
2021/12/22 11:24:44;;;;;;;12.18;6.57;;;;;;;-141.50;100.00;63355.56;4883605;29;20060;-80